createdAt,value
2022-10-17T00:00:14.795Z,15.05
2022-10-17T00:01:14.818Z,15.05
2022-10-17T00:02:14.776Z,15.01
2022-10-17T00:03:14.766Z,15.03
2022-10-17T00:04:14.789Z,15.04
2022-10-17T00:05:14.756Z,15.05
2022-10-17T00:06:14.741Z,15.05
2022-10-17T00:07:14.740Z,15.04
2022-10-17T00:08:14.724Z,15.04
2022-10-17T00:09:14.726Z,15.04
2022-10-17T00:10:14.682Z,15.01
2022-10-17T00:11:14.685Z,15.03
2022-10-17T00:12:14.671Z,15.01
2022-10-17T00:13:14.667Z,15.04
2022-10-17T00:14:14.641Z,15.04
2022-10-17T00:15:14.627Z,15.03
2022-10-17T00:16:14.653Z,14.96
2022-10-17T00:17:14.661Z,14.93
2022-10-17T00:18:14.632Z,14.90
2022-10-17T00:19:14.600Z,14.83
2022-10-17T00:20:14.580Z,14.82
2022-10-17T00:21:14.583Z,14.77
2022-10-17T00:22:14.550Z,14.71
2022-10-17T00:23:14.572Z,14.77
2022-10-17T00:24:14.539Z,14.77
2022-10-17T00:25:14.552Z,14.79
2022-10-17T00:26:14.520Z,14.85
2022-10-17T00:27:14.538Z,14.83
2022-10-17T00:28:14.505Z,14.85
2022-10-17T00:29:14.502Z,14.89
2022-10-17T00:30:14.533Z,14.86
2022-10-17T00:31:14.478Z,14.82
2022-10-17T00:32:14.472Z,14.83
2022-10-17T00:33:14.459Z,14.85
2022-10-17T00:34:14.518Z,14.83
2022-10-17T00:35:14.425Z,14.85
2022-10-17T00:36:14.441Z,14.86
2022-10-17T00:37:14.400Z,14.83
2022-10-17T00:38:14.424Z,14.82
2022-10-17T00:39:14.407Z,14.82
2022-10-17T00:40:14.416Z,14.85
2022-10-17T00:41:14.399Z,14.83
2022-10-17T00:42:14.342Z,14.87
2022-10-17T00:43:14.393Z,14.86
2022-10-17T00:44:14.353Z,14.85
2022-10-17T00:45:14.356Z,14.86
2022-10-17T00:46:14.364Z,14.89
2022-10-17T00:47:14.331Z,14.89
2022-10-17T00:48:14.328Z,14.89
2022-10-17T00:49:14.281Z,14.89
2022-10-17T00:50:14.294Z,14.89
2022-10-17T00:51:14.296Z,14.83
2022-10-17T00:52:14.369Z,14.83
2022-10-17T00:53:14.244Z,14.85
2022-10-17T00:54:14.255Z,14.79
2022-10-17T00:55:14.267Z,14.79
2022-10-17T00:56:14.267Z,14.78
2022-10-17T00:57:14.262Z,14.79
2022-10-17T00:58:14.205Z,14.79
2022-10-17T00:59:14.214Z,14.78
2022-10-17T01:00:14.169Z,14.79
2022-10-17T01:01:14.216Z,14.83
2022-10-17T01:02:14.235Z,14.78
2022-10-17T01:03:14.180Z,14.79
2022-10-17T01:04:14.134Z,14.74
2022-10-17T01:05:14.111Z,14.73
2022-10-17T01:06:14.135Z,14.71
2022-10-17T01:07:14.113Z,14.71
2022-10-17T01:08:14.128Z,14.69
2022-10-17T01:09:14.100Z,14.66
2022-10-17T01:10:14.193Z,14.64
2022-10-17T01:11:14.094Z,14.63
2022-10-17T01:12:14.046Z,14.61
2022-10-17T01:13:14.079Z,14.58
2022-10-17T01:14:14.037Z,14.64
2022-10-17T01:15:14.118Z,14.66
2022-10-17T01:16:14.013Z,14.69
2022-10-17T01:17:14.061Z,14.69
2022-10-17T01:18:14.035Z,14.70
2022-10-17T01:19:14.046Z,14.69
2022-10-17T01:20:14.006Z,14.71
2022-10-17T01:21:13.994Z,14.71
2022-10-17T01:22:13.972Z,14.70
2022-10-17T01:23:13.956Z,14.67
2022-10-17T01:24:13.928Z,14.69
2022-10-17T01:25:13.958Z,14.67
2022-10-17T01:26:13.976Z,14.69
2022-10-17T01:27:14.205Z,14.59
2022-10-17T01:28:13.884Z,14.63
2022-10-17T01:29:13.897Z,14.61
2022-10-17T01:30:13.884Z,14.55
2022-10-17T01:31:13.880Z,14.52
2022-10-17T01:32:13.869Z,14.46
2022-10-17T01:33:13.870Z,14.45
2022-10-17T01:34:13.829Z,14.45
2022-10-17T01:35:13.840Z,14.44
2022-10-17T01:36:13.820Z,14.49
2022-10-17T01:37:13.869Z,14.45
2022-10-17T01:38:13.797Z,14.45
2022-10-17T01:39:13.809Z,14.45
2022-10-17T01:40:13.814Z,14.44
2022-10-17T01:41:13.837Z,14.44
2022-10-17T01:42:13.784Z,14.44
2022-10-17T01:43:13.749Z,14.41
2022-10-17T01:44:13.796Z,14.40
2022-10-17T01:45:13.730Z,14.37
2022-10-17T01:46:13.726Z,14.34
2022-10-17T01:47:13.763Z,14.34
2022-10-17T01:48:13.710Z,14.33
2022-10-17T01:49:13.682Z,14.33
2022-10-17T01:50:13.716Z,14.34
2022-10-17T01:51:13.673Z,14.34
2022-10-17T01:52:13.649Z,14.33
2022-10-17T01:53:13.639Z,14.28
2022-10-17T01:54:13.710Z,14.30
2022-10-17T01:55:13.661Z,14.30
2022-10-17T01:56:13.612Z,14.33
2022-10-17T01:57:13.589Z,14.30
2022-10-17T01:58:13.620Z,14.33
2022-10-17T01:59:13.576Z,14.34
2022-10-17T02:00:13.593Z,14.34
2022-10-17T02:01:13.632Z,14.31
2022-10-17T02:02:13.555Z,14.28
2022-10-17T02:03:13.563Z,14.27
2022-10-17T02:04:13.526Z,14.28
2022-10-17T02:05:13.617Z,14.28
2022-10-17T02:06:13.494Z,14.27
2022-10-17T02:07:13.498Z,14.21
2022-10-17T02:08:13.500Z,14.18
2022-10-17T02:09:13.496Z,14.16
2022-10-17T02:10:13.511Z,14.19
2022-10-17T02:11:13.494Z,14.21
2022-10-17T02:12:13.431Z,14.22
2022-10-17T02:13:13.448Z,14.23
2022-10-17T02:14:13.495Z,14.26
2022-10-17T02:15:13.461Z,14.27
2022-10-17T02:16:13.415Z,14.31
2022-10-17T02:17:13.437Z,14.30
2022-10-17T02:18:13.466Z,14.28
2022-10-17T02:19:13.406Z,14.31
2022-10-17T02:20:13.361Z,14.28
2022-10-17T02:21:13.389Z,14.30
2022-10-17T02:22:13.385Z,14.28
2022-10-17T02:23:13.383Z,14.28
2022-10-17T02:24:13.310Z,14.27
2022-10-17T02:25:13.348Z,14.23
2022-10-17T02:26:13.320Z,14.22
2022-10-17T02:27:13.340Z,14.23
2022-10-17T02:28:13.333Z,14.16
2022-10-17T02:29:13.311Z,14.13
2022-10-17T02:30:13.300Z,14.15
2022-10-17T02:31:13.298Z,14.15
2022-10-17T02:32:13.341Z,14.12
2022-10-17T02:33:13.250Z,14.12
2022-10-17T02:34:13.249Z,14.11
2022-10-17T02:35:13.222Z,14.12
2022-10-17T02:36:13.205Z,14.11
2022-10-17T02:37:13.237Z,14.11
2022-10-17T02:38:13.255Z,14.13
2022-10-17T02:39:13.227Z,14.15
2022-10-17T02:40:13.210Z,14.16
2022-10-17T02:41:13.176Z,14.15
2022-10-17T02:42:13.154Z,14.19
2022-10-17T02:43:13.161Z,14.19
2022-10-17T02:44:13.166Z,14.19
2022-10-17T02:45:13.172Z,14.19
2022-10-17T02:46:13.092Z,14.22
2022-10-17T02:47:13.095Z,14.23
2022-10-17T02:48:13.076Z,14.26
2022-10-17T02:49:13.156Z,14.26
2022-10-17T02:50:13.056Z,14.26
2022-10-17T02:51:13.112Z,14.27
2022-10-17T02:52:13.041Z,14.33
2022-10-17T02:53:13.045Z,14.30
2022-10-17T02:54:13.040Z,14.33
2022-10-17T02:55:13.037Z,14.27
2022-10-17T02:56:13.014Z,14.28
2022-10-17T02:57:12.986Z,14.23
2022-10-17T02:58:13.038Z,14.26
2022-10-17T02:59:13.015Z,14.26
2022-10-17T03:00:12.947Z,14.22
2022-10-17T03:01:13.027Z,14.19
2022-10-17T03:02:12.945Z,14.26
2022-10-17T03:03:12.946Z,14.22
2022-10-17T03:04:12.912Z,14.19
2022-10-17T03:05:12.965Z,14.13
2022-10-17T03:06:12.893Z,14.13
2022-10-17T03:07:12.906Z,14.08
2022-10-17T03:08:12.920Z,14.12
2022-10-17T03:09:12.883Z,14.08
2022-10-17T03:10:12.841Z,14.04
2022-10-17T03:11:12.900Z,14.01
2022-10-17T03:12:12.847Z,14.03
2022-10-17T03:13:12.861Z,14.00
2022-10-17T03:14:12.811Z,14.03
2022-10-17T03:15:12.820Z,14.09
2022-10-17T03:16:12.828Z,14.09
2022-10-17T03:17:12.835Z,14.12
2022-10-17T03:18:12.848Z,14.13
2022-10-17T03:19:12.784Z,14.11
2022-10-17T03:20:12.743Z,14.13
2022-10-17T03:21:12.770Z,14.12
2022-10-17T03:22:12.738Z,14.15
2022-10-17T03:23:12.762Z,14.15
2022-10-17T03:24:12.814Z,14.13
2022-10-17T03:25:12.730Z,14.04
2022-10-17T03:26:12.699Z,14.04
2022-10-17T03:27:12.673Z,13.98
2022-10-17T03:28:12.711Z,13.97
2022-10-17T03:29:12.680Z,13.97
2022-10-17T03:30:12.689Z,14.03
2022-10-17T03:31:12.707Z,14.00
2022-10-17T03:32:12.625Z,13.93
2022-10-17T03:33:12.709Z,13.97
2022-10-17T03:34:12.612Z,13.96
2022-10-17T03:35:14.806Z,13.97
2022-10-17T03:36:12.600Z,13.98
2022-10-17T03:37:12.704Z,14.01
2022-10-17T03:38:12.636Z,14.00
2022-10-17T03:39:12.831Z,14.00
2022-10-17T03:40:12.608Z,14.01
2022-10-17T03:41:12.558Z,13.98
2022-10-17T03:42:12.547Z,13.94
2022-10-17T03:43:12.538Z,13.94
2022-10-17T03:44:12.628Z,13.97
2022-10-17T03:45:12.542Z,13.93
2022-10-17T03:46:12.557Z,13.88
2022-10-17T03:47:14.206Z,13.90
2022-10-17T03:48:12.483Z,13.88
2022-10-17T03:49:12.480Z,13.88
2022-10-17T03:50:12.437Z,13.90
2022-10-17T03:51:12.475Z,13.88
2022-10-17T03:52:12.423Z,13.90
2022-10-17T03:53:12.438Z,13.90
2022-10-17T03:54:12.452Z,13.90
2022-10-17T03:55:12.438Z,13.93
2022-10-17T03:56:12.416Z,13.91
2022-10-17T03:57:12.418Z,13.93
2022-10-17T03:58:12.399Z,13.93
2022-10-17T03:59:12.391Z,13.96
2022-10-17T04:00:12.292Z,13.96
2022-10-17T04:01:12.431Z,14.00
2022-10-17T04:02:12.341Z,14.03
2022-10-17T04:03:16.422Z,14.03
2022-10-17T04:04:12.318Z,13.98
2022-10-17T04:05:12.326Z,14.04
2022-10-17T04:06:12.298Z,14.03
2022-10-17T04:07:12.310Z,14.05
2022-10-17T04:08:12.287Z,14.08
2022-10-17T04:09:12.271Z,14.08
2022-10-17T04:10:12.253Z,14.08
2022-10-17T04:11:12.251Z,14.11
2022-10-17T04:12:12.245Z,14.11
2022-10-17T04:13:12.224Z,14.08
2022-10-17T04:14:12.163Z,14.11
2022-10-17T04:15:12.207Z,14.09
2022-10-17T04:16:12.178Z,14.05
2022-10-17T04:17:12.198Z,14.04
2022-10-17T04:18:12.216Z,14.01
2022-10-17T04:19:12.168Z,14.01
2022-10-17T04:20:12.173Z,13.98
2022-10-17T04:21:12.147Z,14.00
2022-10-17T04:22:12.164Z,14.01
2022-10-17T04:23:12.116Z,13.98
2022-10-17T04:24:12.097Z,14.01
2022-10-17T04:25:12.112Z,14.00
2022-10-17T04:26:12.134Z,14.00
2022-10-17T04:27:12.096Z,14.01
2022-10-17T04:28:12.059Z,13.97
2022-10-17T04:29:12.055Z,14.05
2022-10-17T04:30:12.095Z,14.04
2022-10-17T04:31:12.051Z,14.08
2022-10-17T04:32:12.084Z,14.11
2022-10-17T04:33:12.102Z,14.08
2022-10-17T04:34:12.034Z,14.08
2022-10-17T04:35:12.022Z,14.04
2022-10-17T04:36:11.993Z,14.05
2022-10-17T04:37:11.972Z,14.04
2022-10-17T04:38:12.008Z,14.09
2022-10-17T04:40:11.969Z,14.11
2022-10-17T04:41:11.965Z,14.11
2022-10-17T04:42:11.967Z,14.13
2022-10-17T04:43:11.934Z,14.12
2022-10-17T04:44:11.914Z,14.08
2022-10-17T04:45:11.916Z,14.11
2022-10-17T04:46:11.950Z,14.05
2022-10-17T04:47:11.889Z,14.01
2022-10-17T04:48:11.905Z,14.01
2022-10-17T04:49:11.839Z,14.01
2022-10-17T04:50:11.848Z,14.01
2022-10-17T04:51:11.858Z,14.01
2022-10-17T04:52:11.898Z,14.01
2022-10-17T04:53:11.768Z,14.03
2022-10-17T04:54:11.817Z,14.01
2022-10-17T04:55:11.840Z,14.03
2022-10-17T04:56:11.786Z,14.05
2022-10-17T04:57:11.870Z,14.09
2022-10-17T04:58:11.777Z,14.11
2022-10-17T04:59:11.772Z,14.13
2022-10-17T05:00:11.786Z,14.11
2022-10-17T05:01:11.831Z,14.11
2022-10-17T05:02:11.833Z,14.12
2022-10-17T05:03:11.738Z,14.09
2022-10-17T05:04:11.704Z,14.00
2022-10-17T05:05:11.686Z,13.97
2022-10-17T05:06:11.701Z,13.97
2022-10-17T05:07:11.656Z,13.98
2022-10-17T05:08:11.727Z,13.97
2022-10-17T05:09:11.679Z,14.00
2022-10-17T05:10:11.669Z,14.00
2022-10-17T05:11:11.642Z,13.98
2022-10-17T05:12:11.648Z,14.00
2022-10-17T05:13:11.610Z,14.00
2022-10-17T05:14:11.573Z,13.98
2022-10-17T05:15:11.607Z,14.00
2022-10-17T05:16:11.628Z,14.01
2022-10-17T05:17:11.560Z,14.03
2022-10-17T05:18:11.579Z,14.04
2022-10-17T05:19:11.571Z,14.04
2022-10-17T05:20:11.600Z,14.08
2022-10-17T05:21:11.573Z,14.08
2022-10-17T05:22:11.567Z,14.05
2022-10-17T05:23:11.517Z,14.01
2022-10-17T05:24:11.495Z,14.03
2022-10-17T05:25:11.643Z,14.00
2022-10-17T05:26:11.484Z,13.97
2022-10-17T05:27:11.486Z,13.98
2022-10-17T05:28:11.497Z,13.98
2022-10-17T05:29:11.468Z,13.96
2022-10-17T05:30:11.452Z,13.97
2022-10-17T05:31:11.527Z,14.00
2022-10-17T05:32:11.474Z,14.00
2022-10-17T05:33:11.381Z,14.00
2022-10-17T05:34:13.201Z,14.03
2022-10-17T05:35:11.443Z,14.03
2022-10-17T05:36:11.365Z,14.09
2022-10-17T05:37:11.380Z,14.11
2022-10-17T05:38:11.376Z,14.08
2022-10-17T05:39:11.352Z,14.08
2022-10-17T05:40:11.322Z,14.12
2022-10-17T05:41:11.297Z,14.08
2022-10-17T05:42:11.343Z,14.08
2022-10-17T05:43:11.246Z,14.12
2022-10-17T05:44:11.280Z,14.09
2022-10-17T05:45:11.226Z,14.09
2022-10-17T05:46:11.239Z,14.12
2022-10-17T05:47:11.227Z,14.15
2022-10-17T05:48:11.221Z,14.18
2022-10-17T05:49:19.590Z,14.15
2022-10-17T05:50:11.208Z,14.16
2022-10-17T05:51:11.214Z,14.15
2022-10-17T05:52:11.205Z,14.21
2022-10-17T05:53:11.163Z,14.16
2022-10-17T05:54:11.145Z,14.13
2022-10-17T05:55:11.156Z,14.12
2022-10-17T05:56:11.137Z,14.12
2022-10-17T05:57:11.166Z,14.09
2022-10-17T05:58:17.699Z,14.08
2022-10-17T05:59:11.150Z,14.03
2022-10-17T06:00:11.176Z,14.04
2022-10-17T06:01:12.816Z,13.98
2022-10-17T06:02:11.137Z,13.98
2022-10-17T06:03:11.075Z,13.97
2022-10-17T06:04:11.133Z,13.97
2022-10-17T06:05:11.083Z,13.98
2022-10-17T06:06:11.033Z,14.01
2022-10-17T06:07:11.065Z,14.01
2022-10-17T06:08:11.049Z,14.03
2022-10-17T06:09:10.997Z,14.01
2022-10-17T06:10:11.006Z,14.04
2022-10-17T06:11:11.015Z,14.08
2022-10-17T06:12:10.999Z,14.13
2022-10-17T06:13:10.957Z,14.16
2022-10-17T06:14:10.946Z,14.16
2022-10-17T06:15:10.926Z,14.21
2022-10-17T06:16:10.944Z,14.22
2022-10-17T06:17:15.595Z,14.28
2022-10-17T06:18:10.950Z,14.28
2022-10-17T06:19:10.900Z,14.34
2022-10-17T06:20:10.926Z,14.36
2022-10-17T06:21:10.889Z,14.34
2022-10-17T06:22:10.866Z,14.31
2022-10-17T06:23:10.889Z,14.26
2022-10-17T06:24:10.875Z,14.28
2022-10-17T06:25:12.239Z,14.28
2022-10-17T06:26:10.812Z,14.31
2022-10-17T06:27:11.900Z,14.31
2022-10-17T06:28:10.789Z,14.33
2022-10-17T06:29:10.893Z,14.34
2022-10-17T06:30:10.817Z,14.34
2022-10-17T06:31:10.782Z,14.37
2022-10-17T06:32:14.108Z,14.36
2022-10-17T06:33:10.765Z,14.40
2022-10-17T06:34:10.735Z,14.49
2022-10-17T06:35:10.718Z,14.52
2022-10-17T06:36:10.732Z,14.56
2022-10-17T06:37:10.701Z,14.59
2022-10-17T06:38:10.703Z,14.71
2022-10-17T06:39:11.015Z,14.79
2022-10-17T06:40:10.789Z,14.83
2022-10-17T06:41:10.654Z,14.85
2022-10-17T06:42:10.719Z,14.85
2022-10-17T06:43:10.668Z,14.90
2022-10-17T06:44:10.695Z,14.96
2022-10-17T06:45:10.661Z,15.08
2022-10-17T06:46:10.628Z,15.36
2022-10-17T06:47:10.628Z,15.50
2022-10-17T06:48:10.629Z,15.51
2022-10-17T06:49:10.652Z,15.51
2022-10-17T06:50:10.569Z,15.59
2022-10-17T06:51:10.584Z,15.60
2022-10-17T06:52:11.278Z,15.80
2022-10-17T06:53:10.553Z,16.18
2022-10-17T06:54:10.575Z,16.54
2022-10-17T06:55:10.514Z,16.87
2022-10-17T06:56:10.512Z,17.27
2022-10-17T06:57:10.502Z,17.47
2022-10-17T06:58:10.514Z,17.75
2022-10-17T06:59:10.482Z,18.03
2022-10-17T07:00:10.492Z,18.30
2022-10-17T07:01:10.481Z,18.43
2022-10-17T07:02:13.147Z,18.57
2022-10-17T07:03:10.490Z,18.74
2022-10-17T07:04:10.430Z,18.89
2022-10-17T07:05:10.453Z,18.96
2022-10-17T07:06:10.472Z,18.96
2022-10-17T07:07:10.431Z,19.05
2022-10-17T07:08:10.417Z,19.13
2022-10-17T07:09:10.416Z,19.20
2022-10-17T07:10:10.398Z,19.23
2022-10-17T07:11:10.379Z,19.27
2022-10-17T07:12:10.381Z,19.27
2022-10-17T07:13:10.377Z,19.35
2022-10-17T07:14:10.398Z,19.35
2022-10-17T07:15:10.557Z,19.39
2022-10-17T07:16:10.455Z,19.39
2022-10-17T07:17:10.317Z,19.31
2022-10-17T07:18:10.300Z,19.07
2022-10-17T07:19:10.345Z,18.96
2022-10-17T07:20:10.438Z,18.98
2022-10-17T07:21:10.392Z,19.00
2022-10-17T07:22:10.289Z,18.89
2022-10-17T07:23:10.282Z,18.88
2022-10-17T07:24:10.254Z,18.96
2022-10-17T07:25:10.229Z,19.04
2022-10-17T07:26:10.346Z,19.05
2022-10-17T07:27:10.232Z,18.79
2022-10-17T07:28:10.243Z,18.42
2022-10-17T07:29:10.201Z,18.06
2022-10-17T07:30:10.244Z,17.79
2022-10-17T07:31:10.245Z,17.53
2022-10-17T07:32:10.178Z,17.31
2022-10-17T07:33:10.201Z,17.16
2022-10-17T07:34:11.028Z,17.06
2022-10-17T07:35:10.196Z,17.09
2022-10-17T07:36:10.150Z,17.24
2022-10-17T07:37:10.139Z,17.41
2022-10-17T07:38:10.128Z,17.53
2022-10-17T07:39:10.121Z,17.63
2022-10-17T07:40:10.093Z,17.63
2022-10-17T07:41:10.137Z,17.59
2022-10-17T07:42:10.070Z,17.46
2022-10-17T07:43:10.050Z,17.34
2022-10-17T07:44:10.107Z,17.22
2022-10-17T07:45:10.051Z,17.12
2022-10-17T07:46:10.119Z,16.99
2022-10-17T07:47:10.033Z,16.99
2022-10-17T07:48:10.012Z,16.92
2022-10-17T07:49:09.981Z,16.91
2022-10-17T07:50:10.038Z,16.91
2022-10-17T07:51:10.006Z,16.84
2022-10-17T07:52:09.979Z,16.79
2022-10-17T07:53:09.976Z,16.73
2022-10-17T07:54:10.010Z,16.72
2022-10-17T07:55:09.937Z,16.76
2022-10-17T07:56:09.967Z,16.74
2022-10-17T07:57:09.989Z,16.77
2022-10-17T07:58:09.899Z,16.79
2022-10-17T07:59:10.195Z,16.82
2022-10-17T08:00:09.917Z,16.83
2022-10-17T08:01:13.785Z,16.84
2022-10-17T08:02:10.239Z,16.82
2022-10-17T08:03:09.961Z,16.83
2022-10-17T08:04:09.960Z,16.79
2022-10-17T08:05:09.822Z,16.77
2022-10-17T08:06:09.825Z,16.77
2022-10-17T08:07:21.714Z,16.79
2022-10-17T08:08:09.851Z,16.73
2022-10-17T08:09:09.835Z,16.69
2022-10-17T08:10:09.908Z,16.62
2022-10-17T08:11:09.766Z,16.59
2022-10-17T08:12:09.831Z,16.59
2022-10-17T08:13:09.851Z,16.58
2022-10-17T08:14:09.761Z,16.58
2022-10-17T08:15:09.739Z,16.58
2022-10-17T08:16:09.744Z,16.61
2022-10-17T08:17:09.710Z,16.62
2022-10-17T08:18:09.695Z,16.64
2022-10-17T08:19:09.748Z,16.64
2022-10-17T08:20:09.705Z,16.64
2022-10-17T08:21:09.871Z,16.64
2022-10-17T08:22:09.698Z,16.67
2022-10-17T08:23:09.681Z,16.70
2022-10-17T08:24:09.775Z,16.74
2022-10-17T08:25:09.628Z,16.79
2022-10-17T08:26:09.779Z,16.82
2022-10-17T08:27:09.673Z,16.84
2022-10-17T08:28:09.582Z,16.87
2022-10-17T08:29:09.658Z,16.91
2022-10-17T08:30:09.597Z,16.94
2022-10-17T08:31:09.565Z,16.95
2022-10-17T08:32:09.990Z,16.98
2022-10-17T08:33:09.573Z,17.04
2022-10-17T08:34:09.543Z,17.04
2022-10-17T08:35:09.518Z,17.04
2022-10-17T08:36:09.510Z,17.04
2022-10-17T08:38:12.235Z,16.97
2022-10-17T08:39:09.523Z,16.94
2022-10-17T08:40:09.472Z,16.97
2022-10-17T08:41:09.506Z,17.01
2022-10-17T08:42:09.447Z,17.07
2022-10-17T08:43:09.515Z,17.10
2022-10-17T08:44:09.438Z,17.12
2022-10-17T08:45:09.483Z,17.19
2022-10-17T08:46:09.449Z,17.25
2022-10-17T08:47:09.410Z,17.27
2022-10-17T08:48:09.396Z,17.32
2022-10-17T08:49:12.002Z,17.35
2022-10-17T08:50:09.358Z,17.39
2022-10-17T08:51:09.354Z,17.41
2022-10-17T08:52:09.406Z,17.46
2022-10-17T08:53:09.413Z,17.45
2022-10-17T08:54:09.333Z,17.47
2022-10-17T08:55:09.391Z,17.47
2022-10-17T08:56:12.029Z,17.50
2022-10-17T08:57:09.333Z,17.53
2022-10-17T08:58:09.489Z,17.59
2022-10-17T08:59:09.487Z,17.62
2022-10-17T09:00:09.610Z,17.63
2022-10-17T09:01:13.037Z,17.69
2022-10-17T09:02:09.272Z,17.73
2022-10-17T09:03:09.295Z,17.78
2022-10-17T09:04:09.277Z,17.81
2022-10-17T09:05:09.336Z,17.84
2022-10-17T09:06:09.214Z,17.86
2022-10-17T09:07:09.259Z,17.90
2022-10-17T09:08:09.284Z,17.94
2022-10-17T09:09:09.181Z,18.02
2022-10-17T09:10:09.192Z,18.08
2022-10-17T09:11:10.044Z,18.06
2022-10-17T09:12:09.179Z,18.12
2022-10-17T09:13:09.141Z,18.15
2022-10-17T09:14:09.139Z,18.18
2022-10-17T09:15:09.176Z,18.15
2022-10-17T09:16:09.150Z,18.20
2022-10-17T09:17:09.142Z,18.20
2022-10-17T09:18:09.125Z,18.26
2022-10-17T09:19:09.122Z,18.31
2022-10-17T09:20:09.070Z,18.38
2022-10-17T09:21:09.950Z,18.36
2022-10-17T09:22:09.051Z,18.41
2022-10-17T09:23:09.051Z,18.38
2022-10-17T09:24:15.868Z,18.39
2022-10-17T09:25:09.093Z,18.39
2022-10-17T09:26:08.995Z,18.43
2022-10-17T09:27:08.989Z,18.43
2022-10-17T09:28:09.023Z,18.52
2022-10-17T09:29:09.012Z,18.56
2022-10-17T09:30:13.037Z,18.57
2022-10-17T09:31:09.007Z,18.61
2022-10-17T09:32:08.991Z,18.68
2022-10-17T09:33:08.991Z,18.75
2022-10-17T09:34:08.933Z,18.76
2022-10-17T09:35:09.000Z,18.75
2022-10-17T09:36:08.897Z,18.79
2022-10-17T09:37:08.905Z,18.76
2022-10-17T09:38:09.435Z,18.75
2022-10-17T09:39:08.896Z,18.78
2022-10-17T09:40:08.858Z,18.79
2022-10-17T09:41:25.611Z,18.76
2022-10-17T09:42:08.843Z,18.75
2022-10-17T09:43:08.828Z,18.76
2022-10-17T09:44:08.824Z,18.71
2022-10-17T09:45:09.028Z,18.79
2022-10-17T09:46:08.838Z,18.82
2022-10-17T09:47:08.793Z,18.83
2022-10-17T09:48:08.762Z,18.85
2022-10-17T09:49:10.281Z,18.81
2022-10-17T09:50:08.765Z,18.85
2022-10-17T09:51:21.876Z,18.85
2022-10-17T09:52:08.721Z,18.85
2022-10-17T09:53:08.770Z,18.83
2022-10-17T09:54:08.720Z,18.86
2022-10-17T09:55:08.763Z,18.91
2022-10-17T09:56:08.700Z,18.89
2022-10-17T09:57:08.712Z,18.96
2022-10-17T09:58:08.680Z,19.04
2022-10-17T09:59:13.554Z,19.04
2022-10-17T10:00:08.991Z,19.08
2022-10-17T10:01:08.747Z,19.17
2022-10-17T10:02:08.681Z,19.24
2022-10-17T10:03:08.694Z,19.35
2022-10-17T10:04:08.687Z,19.38
2022-10-17T10:05:08.821Z,19.50
2022-10-17T10:06:08.641Z,19.50
2022-10-17T10:07:08.591Z,19.56
2022-10-17T10:08:08.599Z,19.60
2022-10-17T10:09:08.761Z,19.64
2022-10-17T10:10:08.586Z,19.67
2022-10-17T10:11:13.773Z,19.68
2022-10-17T10:12:08.879Z,19.72
2022-10-17T10:13:08.645Z,19.75
2022-10-17T10:14:08.557Z,19.75
2022-10-17T10:15:08.566Z,19.75
2022-10-17T10:16:08.548Z,19.77
2022-10-17T10:17:08.557Z,19.75
2022-10-17T10:18:08.470Z,19.77
2022-10-17T10:19:09.173Z,19.77
2022-10-17T10:20:08.546Z,19.81
2022-10-17T10:21:08.740Z,19.79
2022-10-17T10:22:08.480Z,19.81
2022-10-17T10:23:08.792Z,19.81
2022-10-17T10:24:08.809Z,19.84
2022-10-17T10:25:08.453Z,19.84
2022-10-17T10:26:11.597Z,19.87
2022-10-17T10:27:08.446Z,19.89
2022-10-17T10:28:08.371Z,19.92
2022-10-17T10:29:08.509Z,19.93
2022-10-17T10:30:08.554Z,19.99
2022-10-17T10:31:08.345Z,20.02
2022-10-17T10:32:08.379Z,20.07
2022-10-17T10:33:08.356Z,20.09
2022-10-17T10:34:08.592Z,20.14
2022-10-17T10:35:08.314Z,20.18
2022-10-17T10:36:08.396Z,20.23
2022-10-17T10:37:08.678Z,20.26
2022-10-17T10:38:08.312Z,20.30
2022-10-17T10:39:08.332Z,20.34
2022-10-17T10:40:08.423Z,20.34
2022-10-17T10:41:08.287Z,20.37
2022-10-17T10:42:08.315Z,20.44
2022-10-17T10:43:08.339Z,20.44
2022-10-17T10:44:08.232Z,20.50
2022-10-17T10:45:11.943Z,20.49
2022-10-17T10:46:08.377Z,20.49
2022-10-17T10:47:08.225Z,20.53
2022-10-17T10:48:08.234Z,20.58
2022-10-17T10:49:08.170Z,20.61
2022-10-17T10:50:08.296Z,20.63
2022-10-17T10:51:08.212Z,20.63
2022-10-17T10:52:08.218Z,20.65
2022-10-17T10:53:08.166Z,20.70
2022-10-17T10:54:08.103Z,20.68
2022-10-17T10:55:08.123Z,20.71
2022-10-17T10:56:08.137Z,20.70
2022-10-17T10:57:08.082Z,20.75
2022-10-17T10:58:08.076Z,20.83
2022-10-17T10:59:08.249Z,20.82
2022-10-17T11:00:08.505Z,20.86
2022-10-17T11:01:08.168Z,20.83
2022-10-17T11:02:08.097Z,20.90
2022-10-17T11:03:11.844Z,20.89
2022-10-17T11:04:08.904Z,20.89
2022-10-17T11:05:10.057Z,20.98
2022-10-17T11:06:07.996Z,21.00
2022-10-17T11:07:08.005Z,21.08
2022-10-17T11:08:08.931Z,21.18
2022-10-17T11:09:08.102Z,21.22
2022-10-17T11:10:08.334Z,21.25
2022-10-17T11:11:07.976Z,21.29
2022-10-17T11:12:08.004Z,21.32
2022-10-17T11:13:07.944Z,21.38
2022-10-17T11:14:09.638Z,21.44
2022-10-17T11:15:07.907Z,21.48
2022-10-17T11:16:08.003Z,21.51
2022-10-17T11:17:07.885Z,21.50
2022-10-17T11:18:07.877Z,21.51
2022-10-17T11:19:07.897Z,21.51
2022-10-17T11:20:07.909Z,21.50
2022-10-17T11:21:07.908Z,21.53
2022-10-17T11:22:08.021Z,21.55
2022-10-17T11:23:08.149Z,21.58
2022-10-17T11:24:09.032Z,21.60
2022-10-17T11:25:07.797Z,21.62
2022-10-17T11:26:07.784Z,21.65
2022-10-17T11:27:07.797Z,21.67
2022-10-17T11:28:07.773Z,21.73
2022-10-17T11:29:07.823Z,21.74
2022-10-17T11:30:07.752Z,21.77
2022-10-17T11:31:08.118Z,21.80
2022-10-17T11:32:07.715Z,21.84
2022-10-17T11:33:07.764Z,21.85
2022-10-17T11:34:07.706Z,22.00
2022-10-17T11:35:07.713Z,22.03
2022-10-17T11:36:07.699Z,22.09
2022-10-17T11:37:07.691Z,22.11
2022-10-17T11:38:07.650Z,22.12
2022-10-17T11:39:07.677Z,22.07
2022-10-17T11:40:07.644Z,22.04
2022-10-17T11:41:07.634Z,22.06
2022-10-17T11:42:07.697Z,22.07
2022-10-17T11:43:07.618Z,22.06
2022-10-17T11:44:07.673Z,22.04
2022-10-17T11:45:07.642Z,22.01
2022-10-17T11:46:07.613Z,21.96
2022-10-17T11:47:07.830Z,21.85
2022-10-17T11:48:07.546Z,21.80
2022-10-17T11:49:07.651Z,21.85
2022-10-17T11:52:07.660Z,22.11
2022-10-17T11:53:07.515Z,22.23
2022-10-17T11:54:07.527Z,22.34
2022-10-17T11:55:07.635Z,22.46
2022-10-17T11:56:07.527Z,22.51
2022-10-17T11:57:08.526Z,22.55
2022-10-17T11:58:07.491Z,22.53
2022-10-17T11:59:07.486Z,22.55
2022-10-17T12:00:07.594Z,22.59
2022-10-17T12:01:07.504Z,22.62
2022-10-17T12:02:07.430Z,22.68
2022-10-17T12:03:07.622Z,22.66
2022-10-17T12:04:07.423Z,22.64
2022-10-17T12:05:07.388Z,22.71
2022-10-17T12:06:07.395Z,22.74
2022-10-17T12:07:07.417Z,22.77
2022-10-17T12:08:07.388Z,22.81
2022-10-17T12:09:07.409Z,22.91
2022-10-17T12:10:07.359Z,22.91
2022-10-17T12:11:07.336Z,22.96
2022-10-17T12:12:07.410Z,22.99
2022-10-17T12:13:07.372Z,23.01
2022-10-17T12:14:07.616Z,23.03
2022-10-17T12:15:07.369Z,23.10
2022-10-17T12:16:07.290Z,23.11
2022-10-17T12:17:07.302Z,23.17
2022-10-17T12:18:07.327Z,23.15
2022-10-17T12:19:07.248Z,23.22
2022-10-17T12:20:07.283Z,23.21
2022-10-17T12:21:07.274Z,23.25
2022-10-17T12:22:07.199Z,23.31
2022-10-17T12:23:07.273Z,23.31
2022-10-17T12:24:07.212Z,23.31
2022-10-17T12:25:07.225Z,23.31
2022-10-17T12:26:07.195Z,23.28
2022-10-17T12:27:07.151Z,23.25
2022-10-17T12:28:07.158Z,23.21
2022-10-17T12:29:07.277Z,23.14
2022-10-17T12:30:07.190Z,23.14
2022-10-17T12:31:07.127Z,23.11
2022-10-17T12:32:07.103Z,23.10
2022-10-17T12:33:08.265Z,23.04
2022-10-17T12:34:07.140Z,23.03
2022-10-17T12:35:07.089Z,22.98
2022-10-17T12:36:07.083Z,22.96
2022-10-17T12:37:07.065Z,22.96
2022-10-17T12:38:07.107Z,22.98
2022-10-17T12:39:07.814Z,23.01
2022-10-17T12:40:07.043Z,23.03
2022-10-17T12:41:07.051Z,22.95
2022-10-17T12:42:07.014Z,22.91
2022-10-17T12:43:07.002Z,22.92
2022-10-17T12:44:07.167Z,22.91
2022-10-17T12:45:07.086Z,22.88
2022-10-17T12:46:07.064Z,22.83
2022-10-17T12:47:07.061Z,22.80
2022-10-17T12:48:07.070Z,22.80
2022-10-17T12:49:06.962Z,22.78
2022-10-17T12:50:07.043Z,22.76
2022-10-17T12:53:39.073Z,22.78
2022-10-17T12:55:20.715Z,22.86
2022-10-17T12:55:26.845Z,22.93
2022-10-17T12:57:43.732Z,23.06
2022-10-17T12:58:44.362Z,23.10
2022-10-17T12:59:45.112Z,23.13